Time;durP1;ratioP1;P1;durP2;ratioP2;P2;SDS_P1;SDS_P2;PMS_P1;PMS_P2;Temp;Humidity;BMP_temperature;BMP_pressure;BME280_temperature;BME280_humidity;BME280_pressure;Samples;Min_cycle;Max_cycle;Signal;HPM_P1;HPM_P2
2022/04/12 00:00:32;;;;;;;29.85;6.82;;;;;;;;;;5003603;28;20029;-71
2022/04/12 00:02:59;;;;;;;30.83;8.52;;;;;;;;;;4957919;28;20742;-72
2022/04/12 00:05:25;;;;;;;28.20;6.93;;;;;;;;;;4984504;28;20452;-72
2022/04/12 00:07:51;;;;;;;33.47;7.65;;;;;;;;;;4980046;28;20033;-72
2022/04/12 00:10:19;;;;;;;34.53;8.05;;;;;;;;;;4962798;28;20388;-72
2022/04/12 00:12:46;;;;;;;29.75;7.47;;;;;;;;;;4982513;28;20026;-72
2022/04/12 00:15:13;;;;;;;33.15;6.85;;;;;;;;;;4982155;28;20038;-72
2022/04/12 00:20:27;;;;;;;37.10;6.80;;;;;;;;;;4985181;28;20157;-72
2022/04/12 00:22:56;;;;;;;28.08;7.07;;;;;;;;;;4986288;28;20400;-72
2022/04/12 00:25:23;;;;;;;37.65;7.18;;;;;;;;;;4987153;28;20044;-72
2022/04/12 00:27:52;;;;;;;31.00;6.85;;;;;;;;;;4990066;28;20065;-72
2022/04/12 00:30:18;;;;;;;34.92;7.32;;;;;;;;;;4984858;28;20084;-72
2022/04/12 00:32:45;;;;;;;32.38;6.85;;;;;;;;;;4974799;28;20037;-72
2022/04/12 00:35:11;;;;;;;36.53;7.40;;;;;;;;;;4980873;28;20030;-72
2022/04/12 00:37:37;;;;;;;27.45;6.35;;;;;;;;;;4982358;28;20041;-72
2022/04/12 00:40:05;;;;;;;30.55;6.88;;;;;;;;;;4911329;28;20723;-72
2022/04/12 00:42:31;;;;;;;30.52;7.30;;;;;;;;;;4930577;28;20576;-72
2022/04/12 00:44:58;;;;;;;33.63;6.38;;;;;;;;;;4939452;28;20586;-71
2022/04/12 00:47:25;;;;;;;34.35;7.18;;;;;;;;;;4939122;28;20485;-71
2022/04/12 00:49:52;;;;;;;37.58;7.35;;;;;;;;;;4923982;28;20025;-71
2022/04/12 00:52:18;;;;;;;31.88;6.45;;;;;;;;;;4927090;28;20099;-71
2022/04/12 00:54:45;;;;;;;31.02;7.05;;;;;;;;;;4936873;28;20030;-71
2022/04/12 00:57:11;;;;;;;;;;;;;;;;;;4931628;28;20126;-71
2022/04/12 00:59:37;;;;;;;34.20;7.32;;;;;;;;;;4918866;28;20011;-70
2022/04/12 01:02:04;;;;;;;34.72;6.95;;;;;;;;;;4921197;28;20465;-71
2022/04/12 01:04:31;;;;;;;32.50;7.25;;;;;;;;;;4929183;28;20137;-72
2022/04/12 01:06:57;;;;;;;34.50;7.03;;;;;;;;;;4916479;28;21333;-71
2022/04/12 01:09:25;;;;;;;;;;;;;;;;;;4927594;28;20034;-71
2022/04/12 01:11:52;;;;;;;29.73;6.50;;;;;;;;;;4934546;28;19917;-71
2022/04/12 01:14:18;;;;;;;35.47;7.18;;;;;;;;;;4917249;28;20034;-71
2022/04/12 01:16:45;;;;;;;28.58;6.68;;;;;;;;;;4981898;28;20431;-71
2022/04/12 01:19:11;;;;;;;31.30;7.38;;;;;;;;;;4973698;28;20172;-71
2022/04/12 01:22:07;;;;;;;36.70;7.03;;;;;;;;;;4976597;28;20287;-71
2022/04/12 01:24:34;;;;;;;33.80;7.00;;;;;;;;;;4909479;28;20458;-71
2022/04/12 01:27:00;;;;;;;36.65;6.72;;;;;;;;;;4907939;28;20040;-71
2022/04/12 01:29:26;;;;;;;;;;;;;;;;;;4911263;28;20052;-72
2022/04/12 01:31:54;;;;;;;34.25;6.50;;;;;;;;;;4908726;28;20319;-71
2022/04/12 01:34:21;;;;;;;36.55;7.32;;;;;;;;;;4908769;28;20131;-71
2022/04/12 01:36:48;;;;;;;31.48;6.60;;;;;;;;;;4909474;29;20601;-71
2022/04/12 01:39:16;;;;;;;29.50;6.30;;;;;;;;;;4895320;28;20147;-71
2022/04/12 01:41:43;;;;;;;28.30;5.90;;;;;;;;;;4910441;29;20215;-70
2022/04/12 01:44:10;;;;;;;32.00;6.28;;;;;;;;;;4901600;28;20047;-71
2022/04/12 01:46:37;;;;;;;31.02;6.63;;;;;;;;;;4903736;28;20032;-71
2022/04/12 01:49:04;;;;;;;31.45;6.65;;;;;;;;;;4907248;28;20645;-70
2022/04/12 01:51:31;;;;;;;32.70;6.32;;;;;;;;;;4910847;28;20032;-71
2022/04/12 01:53:58;;;;;;;35.30;7.20;;;;;;;;;;4911667;28;20054;-71
2022/04/12 01:56:25;;;;;;;32.40;7.20;;;;;;;;;;4932069;28;20105;-71
2022/04/12 01:58:53;;;;;;;32.70;6.80;;;;;;;;;;4912584;28;20043;-71
2022/04/12 02:01:19;;;;;;;28.83;5.60;;;;;;;;;;4945966;28;20538;-70
2022/04/12 02:03:47;;;;;;;32.83;6.40;;;;;;;;;;4987869;28;20448;-70
2022/04/12 02:06:13;;;;;;;32.78;6.50;;;;;;;;;;4984795;28;20644;-71
2022/04/12 02:08:40;;;;;;;28.95;6.22;;;;;;;;;;5008667;28;20040;-71
2022/04/12 02:11:08;;;;;;;30.90;6.70;;;;;;;;;;5005380;28;20033;-70
2022/04/12 02:13:35;;;;;;;35.13;6.63;;;;;;;;;;4981287;28;20071;-70
2022/04/12 02:16:02;;;;;;;28.08;5.93;;;;;;;;;;5001412;28;20033;-70
2022/04/12 02:18:30;;;;;;;33.58;6.45;;;;;;;;;;5005579;28;20038;-70
2022/04/12 02:20:57;;;;;;;30.50;6.03;;;;;;;;;;5009928;28;20040;-70
2022/04/12 02:23:25;;;;;;;34.13;7.13;;;;;;;;;;5009584;28;20086;-70
2022/04/12 02:25:51;;;;;;;28.20;6.38;;;;;;;;;;5014198;28;20040;-70
2022/04/12 02:28:24;;;;;;;35.75;6.97;;;;;;;;;;5008860;28;20037;-70
2022/04/12 02:30:50;;;;;;;30.88;6.70;;;;;;;;;;5007743;28;20127;-70
2022/04/12 02:33:16;;;;;;;26.10;6.30;;;;;;;;;;5002844;28;20071;-70
2022/04/12 02:35:42;;;;;;;28.88;6.30;;;;;;;;;;5007187;28;20486;-70
2022/04/12 02:38:08;;;;;;;30.38;6.40;;;;;;;;;;5001951;28;20079;-70
2022/04/12 02:40:34;;;;;;;27.42;6.25;;;;;;;;;;5002686;28;20025;-71
2022/04/12 02:43:01;;;;;;;35.70;6.97;;;;;;;;;;5005554;28;20059;-71
2022/04/12 02:45:27;;;;;;;31.20;6.18;;;;;;;;;;5008972;28;20057;-70
2022/04/12 02:47:53;;;;;;;36.13;6.65;;;;;;;;;;5008109;28;20025;-71
2022/04/12 02:50:19;;;;;;;33.58;6.35;;;;;;;;;;4989586;28;20033;-71
2022/04/12 02:52:45;;;;;;;32.83;6.72;;;;;;;;;;5010330;28;20041;-71
2022/04/12 02:55:11;;;;;;;35.33;6.80;;;;;;;;;;5006970;28;20045;-70
2022/04/12 02:57:38;;;;;;;32.65;6.20;;;;;;;;;;5009185;28;20346;-70
2022/04/12 03:00:05;;;;;;;32.88;6.38;;;;;;;;;;5006449;28;20183;-71
2022/04/12 03:02:31;;;;;;;31.85;6.45;;;;;;;;;;5008644;28;20022;-70
2022/04/12 03:04:57;;;;;;;38.05;7.40;;;;;;;;;;5004056;28;20124;-73
2022/04/12 03:07:23;;;;;;;31.98;6.38;;;;;;;;;;4990149;28;20046;-71
2022/04/12 03:09:49;;;;;;;36.42;7.65;;;;;;;;;;4996193;28;20033;-72
2022/04/12 03:12:15;;;;;;;;;;;;;;;;;;4989603;28;20469;-71
2022/04/12 03:14:41;;;;;;;26.25;5.78;;;;;;;;;;4999969;28;20032;-71
2022/04/12 03:17:08;;;;;;;30.38;6.13;;;;;;;;;;4991073;28;20038;-71
2022/04/12 03:19:34;;;;;;;32.30;7.00;;;;;;;;;;4988584;28;20295;-71
2022/04/12 03:22:00;;;;;;;;;;;;;;;;;;4989753;28;20146;-71
2022/04/12 03:24:30;;;;;;;36.80;6.80;;;;;;;;;;4990666;28;19989;-71
2022/04/12 03:26:57;;;;;;;33.72;6.50;;;;;;;;;;4986572;28;20752;-71
2022/04/12 03:29:23;;;;;;;;;;;;;;;;;;4968980;28;20389;-72
2022/04/12 03:31:50;;;;;;;30.92;6.57;;;;;;;;;;4991849;28;19979;-71
2022/04/12 03:34:18;;;;;;;37.40;7.50;;;;;;;;;;4984980;28;20030;-70
2022/04/12 03:36:46;;;;;;;33.28;7.25;;;;;;;;;;4992869;28;20253;-70
2022/04/12 03:39:21;;;;;;;34.08;6.43;;;;;;;;;;4986463;28;20037;-70
2022/04/12 03:41:49;;;;;;;46.10;7.88;;;;;;;;;;4974177;28;20149;-70
2022/04/12 03:44:16;;;;;;;35.50;7.25;;;;;;;;;;4991757;28;20030;-71
2022/04/12 03:46:43;;;;;;;36.10;7.00;;;;;;;;;;4986125;28;20026;-70
2022/04/12 03:49:12;;;;;;;37.30;7.30;;;;;;;;;;4983873;28;20601;-71
2022/04/12 03:51:38;;;;;;;33.40;7.07;;;;;;;;;;4970710;28;20072;-70
2022/04/12 03:54:05;;;;;;;29.83;6.43;;;;;;;;;;4981868;28;20034;-70
2022/04/12 03:56:32;;;;;;;42.58;7.30;;;;;;;;;;4994043;28;20092;-71
2022/04/12 03:59:00;;;;;;;34.15;7.10;;;;;;;;;;4972500;28;20042;-71
2022/04/12 04:01:29;;;;;;;29.60;6.53;;;;;;;;;;4986332;28;20025;-71
2022/04/12 04:03:59;;;;;;;38.85;6.68;;;;;;;;;;4982822;28;20857;-71
2022/04/12 04:06:25;;;;;;;34.33;6.80;;;;;;;;;;4996857;28;20041;-71
2022/04/12 04:08:52;;;;;;;33.72;7.28;;;;;;;;;;4990619;28;20033;-71
2022/04/12 04:11:18;;;;;;;32.83;6.93;;;;;;;;;;5004479;28;20025;-71
2022/04/12 04:13:45;;;;;;;38.70;7.40;;;;;;;;;;5007903;28;20393;-71
2022/04/12 04:16:13;;;;;;;40.58;7.57;;;;;;;;;;5005837;28;20029;-71
2022/04/12 04:18:39;;;;;;;34.78;6.72;;;;;;;;;;5011698;28;20044;-71
2022/04/12 04:21:05;;;;;;;34.20;7.05;;;;;;;;;;5008094;28;20033;-71
2022/04/12 04:23:31;;;;;;;39.63;7.45;;;;;;;;;;4990400;28;20063;-70
2022/04/12 04:25:57;;;;;;;32.53;6.93;;;;;;;;;;5005375;28;20391;-71
2022/04/12 04:28:26;;;;;;;29.23;6.63;;;;;;;;;;5009976;28;20309;-71
2022/04/12 04:30:52;;;;;;;28.88;5.90;;;;;;;;;;5010299;28;20494;-71
2022/04/12 04:33:19;;;;;;;32.28;6.50;;;;;;;;;;5007705;28;20033;-71
2022/04/12 04:35:46;;;;;;;34.08;6.85;;;;;;;;;;5006637;28;20459;-70
2022/04/12 04:38:12;;;;;;;32.83;7.30;;;;;;;;;;5008182;28;20130;-71
2022/04/12 04:40:38;;;;;;;;;;;;;;;;;;5008229;28;20022;-71
2022/04/12 04:43:05;;;;;;;32.92;7.40;;;;;;;;;;5005385;28;20401;-72
2022/04/12 04:45:31;;;;;;;39.08;7.65;;;;;;;;;;5013074;28;20033;-72
2022/04/12 04:47:57;;;;;;;;;;;;;;;;;;4990057;28;20427;-70
2022/04/12 04:50:24;;;;;;;33.63;7.88;;;;;;;;;;5008219;28;19913;-70
2022/04/12 04:52:51;;;;;;;34.17;6.97;;;;;;;;;;5010437;28;20045;-70
2022/04/12 04:55:18;;;;;;;41.05;9.75;;;;;;;;;;5005246;28;20479;-70
2022/04/12 04:57:44;;;;;;;34.13;8.25;;;;;;;;;;4977650;28;20089;-70
2022/04/12 05:00:15;;;;;;;35.55;8.25;;;;;;;;;;4985457;28;20048;-70
2022/04/12 05:02:49;;;;;;;31.27;7.75;;;;;;;;;;5008432;28;20228;-70
2022/04/12 05:05:16;;;;;;;32.65;6.95;;;;;;;;;;4990470;28;20361;-70
2022/04/12 05:07:44;;;;;;;33.63;7.32;;;;;;;;;;5015654;28;20056;-70
2022/04/12 05:10:13;;;;;;;40.10;7.95;;;;;;;;;;5007133;28;20128;-70
2022/04/12 05:12:39;;;;;;;30.80;6.55;;;;;;;;;;5006838;28;20397;-70
2022/04/12 05:15:05;;;;;;;32.10;7.32;;;;;;;;;;5001211;28;20492;-70
2022/04/12 05:17:31;;;;;;;;;;;;;;;;;;5003045;28;20037;-70
2022/04/12 05:19:58;;;;;;;32.25;6.85;;;;;;;;;;5004613;28;20326;-70
2022/04/12 05:22:24;;;;;;;32.45;6.63;;;;;;;;;;4996459;28;20120;-73
2022/04/12 05:24:50;;;;;;;33.30;7.03;;;;;;;;;;5012055;28;20040;-71
2022/04/12 05:27:17;;;;;;;30.80;7.10;;;;;;;;;;5004747;28;20630;-72
2022/04/12 05:29:44;;;;;;;34.10;6.97;;;;;;;;;;5008892;28;20104;-72
2022/04/12 05:32:13;;;;;;;39.53;7.55;;;;;;;;;;5004077;28;20559;-71
2022/04/12 05:34:43;;;;;;;38.38;8.05;;;;;;;;;;5007237;28;20458;-70
2022/04/12 05:37:12;;;;;;;32.53;7.53;;;;;;;;;;4982994;28;20033;-71
2022/04/12 05:39:39;;;;;;;31.35;7.20;;;;;;;;;;5008148;28;20478;-71
2022/04/12 05:42:08;;;;;;;33.70;7.00;;;;;;;;;;5005073;28;20064;-71
2022/04/12 05:44:36;;;;;;;30.50;6.85;;;;;;;;;;5004033;28;20029;-71
2022/04/12 05:47:04;;;;;;;35.08;7.68;;;;;;;;;;5006442;28;20187;-71
2022/04/12 05:49:30;;;;;;;32.92;7.63;;;;;;;;;;5006221;28;20589;-71
2022/04/12 05:51:57;;;;;;;27.67;6.07;;;;;;;;;;5002995;28;20496;-71
2022/04/12 05:54:25;;;;;;;31.80;6.90;;;;;;;;;;5004302;28;20037;-72
2022/04/12 05:56:53;;;;;;;40.22;7.07;;;;;;;;;;5001806;28;20431;-72
2022/04/12 05:59:21;;;;;;;40.67;7.97;;;;;;;;;;5002341;28;20104;-72
2022/04/12 06:01:49;;;;;;;33.25;7.40;;;;;;;;;;5007509;28;20124;-72
2022/04/12 06:04:16;;;;;;;34.05;6.72;;;;;;;;;;4997566;28;20054;-72
2022/04/12 06:06:43;;;;;;;39.13;7.57;;;;;;;;;;4989577;28;20038;-72
2022/04/12 06:09:10;;;;;;;35.30;7.43;;;;;;;;;;4981889;28;20405;-72
2022/04/12 06:11:38;;;;;;;28.90;6.78;;;;;;;;;;4979785;28;20456;-72
2022/04/12 06:14:04;;;;;;;52.90;8.98;;;;;;;;;;4969819;28;20137;-71
2022/04/12 06:16:31;;;;;;;53.35;10.35;;;;;;;;;;4980021;28;20031;-72
2022/04/12 06:18:59;;;;;;;58.97;10.55;;;;;;;;;;4978949;28;20034;-72
2022/04/12 06:21:26;;;;;;;46.45;9.27;;;;;;;;;;4976530;28;20022;-72
2022/04/12 06:23:54;;;;;;;44.25;8.25;;;;;;;;;;4974065;28;20026;-71
2022/04/12 06:26:21;;;;;;;37.30;7.88;;;;;;;;;;4985566;28;20159;-72
2022/04/12 06:28:49;;;;;;;36.00;7.43;;;;;;;;;;4983890;28;20030;-72
2022/04/12 06:31:15;;;;;;;51.72;9.60;;;;;;;;;;4978375;28;20085;-72
2022/04/12 06:33:41;;;;;;;43.72;7.72;;;;;;;;;;4980668;28;20038;-71
2022/04/12 06:36:07;;;;;;;38.50;8.50;;;;;;;;;;4989602;28;20041;-72
2022/04/12 06:38:33;;;;;;;39.75;8.63;;;;;;;;;;4985480;28;20040;-70
2022/04/12 06:41:00;;;;;;;40.58;7.80;;;;;;;;;;4979035;28;20268;-71
2022/04/12 06:43:26;;;;;;;;;;;;;;;;;;4988668;28;20408;-70
2022/04/12 06:45:52;;;;;;;27.83;7.68;;;;;;;;;;4988881;28;19917;-70
2022/04/12 06:48:18;;;;;;;;;;;;;;;;;;4970745;28;20409;-71
2022/04/12 06:50:44;;;;;;;27.13;6.80;;;;;;;;;;4987493;28;19984;-70
2022/04/12 06:53:10;;;;;;;33.80;9.35;;;;;;;;;;4968160;28;20327;-71
2022/04/12 06:55:37;;;;;;;32.10;8.43;;;;;;;;;;4987393;28;20096;-70
2022/04/12 06:58:03;;;;;;;;;;;;;;;;;;4987706;28;20049;-71
2022/04/12 07:00:29;;;;;;;26.65;7.07;;;;;;;;;;4983421;28;20497;-71
2022/04/12 07:02:55;;;;;;;;;;;;;;;;;;4983309;28;20076;-71
2022/04/12 07:05:21;;;;;;;37.70;9.05;;;;;;;;;;4987948;28;19957;-72
2022/04/12 07:07:47;;;;;;;37.05;9.63;;;;;;;;;;4993732;28;20049;-70
2022/04/12 07:10:14;;;;;;;37.72;9.27;;;;;;;;;;4984775;28;21312;-70
2022/04/12 07:12:41;;;;;;;38.35;10.40;;;;;;;;;;4982696;28;20046;-72
2022/04/12 07:15:07;;;;;;;;;;;;;;;;;;4982673;28;20048;-71
2022/04/12 07:17:33;;;;;;;36.78;9.73;;;;;;;;;;4980571;28;19949;-71
2022/04/12 07:19:59;;;;;;;;;;;;;;;;;;4992997;28;20453;-71
2022/04/12 07:22:25;;;;;;;41.05;11.02;;;;;;;;;;4989510;28;19916;-72
2022/04/12 07:24:51;;;;;;;35.05;11.02;;;;;;;;;;4994001;28;20037;-71
2022/04/12 07:27:17;;;;;;;;;;;;;;;;;;4995290;28;20041;-71
2022/04/12 07:29:43;;;;;;;35.65;9.60;;;;;;;;;;5002818;28;19920;-71
2022/04/12 07:32:11;;;;;;;;;;;;;;;;;;5000186;28;20321;-71
2022/04/12 07:34:37;;;;;;;;;;;;;;;;;;4994034;28;20218;-71
2022/04/12 07:37:03;;;;;;;36.08;9.45;;;;;;;;;;4998793;28;19920;-71
2022/04/12 07:39:30;;;;;;;;;;;;;;;;;;4981164;28;20065;-71
2022/04/12 07:41:58;;;;;;;;;;;;;;;;;;4998510;28;20330;-71
2022/04/12 07:44:25;;;;;;;37.75;8.05;;;;;;;;;;5005820;28;19912;-71
2022/04/12 07:46:53;;;;;;;35.85;8.50;;;;;;;;;;5000638;28;20033;-71
2022/04/12 07:49:20;;;;;;;33.13;8.38;;;;;;;;;;4985785;28;20037;-71
2022/04/12 07:51:47;;;;;;;29.35;8.70;;;;;;;;;;4997801;28;20034;-71
2022/04/12 07:54:15;;;;;;;33.63;8.90;;;;;;;;;;5006303;28;20308;-71
2022/04/12 07:56:42;;;;;;;34.42;9.30;;;;;;;;;;4995299;28;20049;-71
2022/04/12 07:59:10;;;;;;;34.90;8.90;;;;;;;;;;4993207;28;20072;-71
2022/04/12 08:01:37;;;;;;;31.58;9.45;;;;;;;;;;5006563;28;20104;-71
2022/04/12 08:04:03;;;;;;;35.33;9.40;;;;;;;;;;5003997;28;20080;-71
2022/04/12 08:06:30;;;;;;;;;;;;;;;;;;5007615;28;20578;-70
2022/04/12 08:08:58;;;;;;;33.58;7.40;;;;;;;;;;5001918;28;20305;-70
2022/04/12 08:11:24;;;;;;;33.33;8.35;;;;;;;;;;4995110;28;20123;-72
2022/04/12 08:13:53;;;;;;;33.38;9.05;;;;;;;;;;5011714;28;20044;-71
2022/04/12 08:16:21;;;;;;;30.15;9.20;;;;;;;;;;5004930;28;20056;-71
2022/04/12 08:18:47;;;;;;;34.20;9.35;;;;;;;;;;5009176;28;20025;-71
2022/04/12 08:21:15;;;;;;;33.97;8.55;;;;;;;;;;4992582;28;20230;-71
2022/04/12 08:23:43;;;;;;;30.50;9.25;;;;;;;;;;5012652;28;20072;-71
2022/04/12 08:26:09;;;;;;;34.42;9.18;;;;;;;;;;5003606;28;20048;-71
2022/04/12 08:28:36;;;;;;;;;;;;;;;;;;5011610;28;20060;-71
2022/04/12 08:31:02;;;;;;;;;;;;;;;;;;5006183;28;19984;-71
2022/04/12 08:33:28;;;;;;;33.75;8.85;;;;;;;;;;5011767;28;20228;-71
2022/04/12 08:35:55;;;;;;;37.90;9.82;;;;;;;;;;4992643;28;20091;-70
2022/04/12 08:38:21;;;;;;;33.40;9.57;;;;;;;;;;5010681;28;20530;-71
2022/04/12 08:40:47;;;;;;;;;;;;;;;;;;5014586;28;20040;-71
2022/04/12 08:43:15;;;;;;;31.27;7.78;;;;;;;;;;5005182;28;19913;-71
2022/04/12 08:45:45;;;;;;;35.97;8.80;;;;;;;;;;5011025;28;20033;-71
2022/04/12 08:48:12;;;;;;;33.42;8.15;;;;;;;;;;5006425;28;20455;-71
2022/04/12 08:50:39;;;;;;;30.45;8.07;;;;;;;;;;4995688;28;20092;-71
2022/04/12 08:53:06;;;;;;;34.95;8.88;;;;;;;;;;4995173;28;20029;-71
2022/04/12 08:55:33;;;;;;;35.38;8.30;;;;;;;;;;5006902;28;20029;-70
2022/04/12 08:57:59;;;;;;;33.60;8.20;;;;;;;;;;4991944;28;20128;-72
2022/04/12 09:00:25;;;;;;;35.55;8.15;;;;;;;;;;4991143;28;20107;-71
2022/04/12 09:02:59;;;;;;;32.22;8.25;;;;;;;;;;5003809;28;20099;-71
2022/04/12 09:05:26;;;;;;;37.75;8.20;;;;;;;;;;4983274;28;20088;-70
2022/04/12 09:07:53;;;;;;;32.67;8.27;;;;;;;;;;4992983;28;20040;-70
2022/04/12 09:10:19;;;;;;;39.25;8.25;;;;;;;;;;4965298;28;20466;-71
2022/04/12 09:12:46;;;;;;;39.60;8.23;;;;;;;;;;4991203;28;20095;-71
2022/04/12 09:15:14;;;;;;;37.85;9.13;;;;;;;;;;4987105;28;20103;-71
2022/04/12 09:17:44;;;;;;;41.40;9.02;;;;;;;;;;4995083;28;20029;-71
2022/04/12 09:20:18;;;;;;;34.47;8.20;;;;;;;;;;4986001;28;20022;-71
2022/04/12 09:22:45;;;;;;;43.55;9.15;;;;;;;;;;4992458;28;20026;-71
2022/04/12 09:25:13;;;;;;;36.53;8.38;;;;;;;;;;4988430;28;20057;-71
2022/04/12 09:27:40;;;;;;;39.90;8.85;;;;;;;;;;4988717;28;20056;-71
2022/04/12 09:30:06;;;;;;;37.22;7.72;;;;;;;;;;4985350;28;20037;-71
2022/04/12 09:32:39;;;;;;;38.97;10.60;;;;;;;;;;4992495;28;20033;-71
2022/04/12 09:35:07;;;;;;;41.63;8.88;;;;;;;;;;4984930;28;20116;-71
2022/04/12 09:37:35;;;;;;;42.90;9.38;;;;;;;;;;4968110;28;20446;-70
2022/04/12 09:40:06;;;;;;;28.83;7.80;;;;;;;;;;4985936;28;20034;-71
2022/04/12 09:42:48;;;;;;;36.20;8.55;;;;;;;;;;4988605;28;20026;-70
2022/04/12 09:45:24;;;;;;;34.58;9.10;;;;;;;;;;4983719;28;20365;-71
2022/04/12 09:47:54;;;;;;;35.33;8.30;;;;;;;;;;4980067;28;20037;-73
2022/04/12 09:50:22;;;;;;;42.20;9.95;;;;;;;;;;4968421;28;20491;-71
2022/04/12 09:53:02;;;;;;;42.40;9.90;;;;;;;;;;4972738;28;20116;-71
2022/04/12 09:55:45;;;;;;;39.88;8.82;;;;;;;;;;4988814;28;20109;-71
2022/04/12 09:58:12;;;;;;;39.38;9.30;;;;;;;;;;4983925;28;20867;-71
2022/04/12 10:00:41;;;;;;;40.10;10.23;;;;;;;;;;4968092;28;20025;-71
2022/04/12 10:03:10;;;;;;;33.95;9.25;;;;;;;;;;4964551;28;20034;-72
2022/04/12 10:05:36;;;;;;;42.85;9.73;;;;;;;;;;4986555;28;20104;-71
2022/04/12 10:08:14;;;;;;;36.70;10.02;;;;;;;;;;4982704;28;20062;-72
2022/04/12 10:10:41;;;;;;;37.95;9.30;;;;;;;;;;4971458;28;20092;-72
2022/04/12 10:13:11;;;;;;;35.20;8.70;;;;;;;;;;4933226;28;21353;-71
2022/04/12 10:15:38;;;;;;;38.92;8.20;;;;;;;;;;4986681;28;20029;-72
2022/04/12 10:18:06;;;;;;;37.08;9.45;;;;;;;;;;4986242;28;20387;-72
2022/04/12 10:20:33;;;;;;;33.97;8.90;;;;;;;;;;4973502;28;20049;-73
2022/04/12 10:23:01;;;;;;;35.72;9.27;;;;;;;;;;4972267;28;20034;-72
2022/04/12 10:25:29;;;;;;;39.90;8.85;;;;;;;;;;4971379;28;21525;-72
2022/04/12 10:28:01;;;;;;;33.78;8.18;;;;;;;;;;4971223;28;20064;-72
2022/04/12 10:30:31;;;;;;;38.72;9.23;;;;;;;;;;4988973;28;20038;-72
2022/04/12 10:33:00;;;;;;;41.30;10.23;;;;;;;;;;4990099;28;20069;-72
2022/04/12 10:35:27;;;;;;;33.97;8.25;;;;;;;;;;4992988;28;20076;-71
2022/04/12 10:37:56;;;;;;;41.70;9.95;;;;;;;;;;4986778;28;20030;-71
2022/04/12 10:40:25;;;;;;;35.20;8.82;;;;;;;;;;4983253;28;20052;-72
2022/04/12 10:42:55;;;;;;;33.42;8.57;;;;;;;;;;4987407;28;20037;-71
2022/04/12 10:45:29;;;;;;;41.63;11.13;;;;;;;;;;4990924;28;20024;-71
2022/04/12 10:48:02;;;;;;;35.85;9.20;;;;;;;;;;4948812;28;20458;-71
2022/04/12 10:50:40;;;;;;;38.55;9.80;;;;;;;;;;4939598;28;20318;-73
2022/04/12 10:53:07;;;;;;;40.10;8.95;;;;;;;;;;4927348;28;20030;-71
2022/04/12 10:55:38;;;;;;;39.42;8.82;;;;;;;;;;4935913;28;20892;-71
2022/04/12 10:58:16;;;;;;;38.45;9.18;;;;;;;;;;4933260;28;20701;-72
2022/04/12 11:00:43;;;;;;;42.33;9.32;;;;;;;;;;4943269;28;20136;-74
2022/04/12 11:03:09;;;;;;;40.88;9.77;;;;;;;;;;4932799;28;20483;-71
2022/04/12 11:05:46;;;;;;;43.45;9.70;;;;;;;;;;4931436;28;20819;-72
2022/04/12 11:08:16;;;;;;;38.45;9.32;;;;;;;;;;4935874;28;20030;-72
2022/04/12 11:10:52;;;;;;;42.13;10.38;;;;;;;;;;4950833;28;20037;-73
2022/04/12 11:13:23;;;;;;;30.35;8.60;;;;;;;;;;4946936;28;20033;-72
2022/04/12 11:15:57;;;;;;;35.95;9.32;;;;;;;;;;4935093;28;20721;-72
2022/04/12 11:18:23;;;;;;;37.75;8.52;;;;;;;;;;4952384;28;20589;-71
2022/04/12 11:21:02;;;;;;;32.70;8.80;;;;;;;;;;4947675;28;20115;-71
2022/04/12 11:23:47;;;;;;;33.10;9.30;;;;;;;;;;4946308;28;20391;-72
2022/04/12 11:26:32;;;;;;;38.38;9.40;;;;;;;;;;4998067;28;21708;-72
2022/04/12 11:28:59;;;;;;;37.90;9.27;;;;;;;;;;5007912;28;20041;-71
2022/04/12 11:31:25;;;;;;;36.45;8.98;;;;;;;;;;5009185;28;20136;-73
2022/04/12 11:33:54;;;;;;;34.13;8.90;;;;;;;;;;5005068;28;20044;-72
2022/04/12 11:36:21;;;;;;;33.47;8.65;;;;;;;;;;4986095;28;20034;-72
2022/04/12 11:38:49;;;;;;;38.15;9.10;;;;;;;;;;4965886;28;20582;-72
2022/04/12 11:41:18;;;;;;;36.30;10.93;;;;;;;;;;4981066;28;20041;-71
2022/04/12 11:44:05;;;;;;;36.75;9.95;;;;;;;;;;4983819;28;20165;-71
2022/04/12 11:46:33;;;;;;;40.08;10.18;;;;;;;;;;4983986;28;20554;-71
2022/04/12 11:49:12;;;;;;;35.97;10.40;;;;;;;;;;4962825;28;20535;-71
2022/04/12 11:51:43;;;;;;;36.55;9.65;;;;;;;;;;4983712;28;20040;-71
2022/04/12 11:54:24;;;;;;;41.05;9.48;;;;;;;;;;4965468;28;20378;-72
2022/04/12 11:57:05;;;;;;;34.55;9.77;;;;;;;;;;4987980;28;20042;-71
2022/04/12 11:59:32;;;;;;;39.95;9.70;;;;;;;;;;4984496;28;20065;-72
2022/04/12 12:02:02;;;;;;;38.90;9.75;;;;;;;;;;4984347;28;20552;-72
2022/04/12 12:04:36;;;;;;;37.05;11.07;;;;;;;;;;4959708;28;20042;-72
2022/04/12 12:07:26;;;;;;;37.40;10.15;;;;;;;;;;4973265;28;20061;-71
2022/04/12 12:10:09;;;;;;;29.48;8.75;;;;;;;;;;4959720;28;20558;-71
2022/04/12 12:12:39;;;;;;;35.17;8.98;;;;;;;;;;4975803;28;20504;-71
2022/04/12 12:15:30;;;;;;;33.75;8.90;;;;;;;;;;4976647;28;20046;-71
2022/04/12 12:18:01;;;;;;;35.55;8.55;;;;;;;;;;4970172;28;20653;-71
2022/04/12 12:20:29;;;;;;;30.27;8.68;;;;;;;;;;4960175;28;20098;-71
2022/04/12 12:23:16;;;;;;;41.22;9.70;;;;;;;;;;4971176;28;20077;-72
2022/04/12 12:25:51;;;;;;;32.10;9.55;;;;;;;;;;4976694;28;20037;-73
2022/04/12 12:28:23;;;;;;;31.17;8.73;;;;;;;;;;4993579;28;20024;-72
2022/04/12 12:30:50;;;;;;;37.92;9.45;;;;;;;;;;4996048;28;20029;-71
2022/04/12 12:33:16;;;;;;;32.28;9.25;;;;;;;;;;4991468;28;20566;-72
2022/04/12 12:35:47;;;;;;;35.75;9.75;;;;;;;;;;4997575;28;20060;-72
2022/04/12 12:38:31;;;;;;;34.15;8.77;;;;;;;;;;4995795;28;20045;-72
2022/04/12 12:41:00;;;;;;;37.38;9.32;;;;;;;;;;4991901;28;20586;-72
2022/04/12 12:43:27;;;;;;;27.77;7.65;;;;;;;;;;4996138;28;20104;-72
2022/04/12 12:45:53;;;;;;;29.23;7.90;;;;;;;;;;4994003;28;20140;-71
2022/04/12 12:48:19;;;;;;;31.98;8.63;;;;;;;;;;4992816;28;20033;-72
2022/04/12 12:50:46;;;;;;;32.13;9.13;;;;;;;;;;4992828;28;20251;-73
2022/04/12 12:53:15;;;;;;;31.48;8.45;;;;;;;;;;4975135;28;20077;-72
2022/04/12 12:55:46;;;;;;;34.17;9.38;;;;;;;;;;5000918;28;20521;-73
2022/04/12 12:58:15;;;;;;;32.90;9.07;;;;;;;;;;4997463;28;20087;-74
2022/04/12 13:00:41;;;;;;;35.67;9.40;;;;;;;;;;4986713;28;20037;-71
2022/04/12 13:03:09;;;;;;;36.47;8.50;;;;;;;;;;4997579;28;20445;-73
2022/04/12 13:05:42;;;;;;;29.80;7.93;;;;;;;;;;5002192;28;20025;-73
2022/04/12 13:08:09;;;;;;;31.83;8.27;;;;;;;;;;4995250;28;20037;-72
2022/04/12 13:10:38;;;;;;;29.02;8.25;;;;;;;;;;5014040;28;20459;-74
2022/04/12 13:13:08;;;;;;;28.23;7.47;;;;;;;;;;4960493;28;20029;-73
2022/04/12 13:15:35;;;;;;;32.78;8.77;;;;;;;;;;4914114;28;20039;-71
2022/04/12 13:18:01;;;;;;;34.63;8.95;;;;;;;;;;4911552;28;20075;-72
2022/04/12 13:20:28;;;;;;;27.13;7.43;;;;;;;;;;4934252;28;20042;-74
2022/04/12 13:22:54;;;;;;;37.70;8.95;;;;;;;;;;4917641;28;20572;-72
2022/04/12 13:25:20;;;;;;;31.30;8.63;;;;;;;;;;4919101;28;20032;-73
2022/04/12 13:27:51;;;;;;;33.35;8.60;;;;;;;;;;4917032;28;20039;-72
2022/04/12 13:30:18;;;;;;;36.85;9.35;;;;;;;;;;4912748;28;20070;-72
2022/04/12 13:32:46;;;;;;;38.35;9.52;;;;;;;;;;4914033;28;20039;-72
2022/04/12 13:35:18;;;;;;;37.53;9.32;;;;;;;;;;4916850;28;20465;-73
2022/04/12 13:37:47;;;;;;;33.60;7.93;;;;;;;;;;4911751;28;20039;-73
2022/04/12 13:40:16;;;;;;;32.08;8.43;;;;;;;;;;4913085;28;20070;-73
2022/04/12 13:42:45;;;;;;;31.13;7.60;;;;;;;;;;4919275;28;20031;-73
2022/04/12 13:45:14;;;;;;;34.65;8.75;;;;;;;;;;4931833;28;20554;-73
2022/04/12 13:47:42;;;;;;;32.67;9.00;;;;;;;;;;4917256;28;20058;-73
2022/04/12 13:50:11;;;;;;;39.85;9.60;;;;;;;;;;4915444;28;20074;-74
2022/04/12 13:52:38;;;;;;;31.50;8.48;;;;;;;;;;4916807;28;20598;-73
2022/04/12 13:55:06;;;;;;;31.30;9.18;;;;;;;;;;4913115;28;20031;-73
2022/04/12 13:57:35;;;;;;;33.65;9.00;;;;;;;;;;4933133;28;20636;-72
2022/04/12 14:00:02;;;;;;;30.42;8.18;;;;;;;;;;4918149;28;20046;-73
2022/04/12 14:02:30;;;;;;;32.90;8.70;;;;;;;;;;4934038;28;20023;-72
2022/04/12 14:04:58;;;;;;;37.03;8.40;;;;;;;;;;4913802;28;20028;-73
2022/04/12 14:07:26;;;;;;;30.13;8.63;;;;;;;;;;4936613;28;20318;-73
2022/04/12 14:09:52;;;;;;;29.20;8.98;;;;;;;;;;4944325;28;20035;-73
2022/04/12 14:12:18;;;;;;;33.58;9.50;;;;;;;;;;4936928;28;20825;-74
2022/04/12 14:14:45;;;;;;;29.50;8.30;;;;;;;;;;4942312;28;20121;-73
2022/04/12 14:17:13;;;;;;;34.95;10.18;;;;;;;;;;4935689;28;20030;-74
2022/04/12 14:19:41;;;;;;;38.67;12.23;;;;;;;;;;4939144;28;20434;-73
2022/04/12 14:22:11;;;;;;;32.55;9.82;;;;;;;;;;4933888;28;20046;-74
2022/04/12 14:24:39;;;;;;;35.95;9.43;;;;;;;;;;4940780;28;20020;-74
2022/04/12 14:27:06;;;;;;;43.97;9.60;;;;;;;;;;4937629;28;20039;-72
2022/04/12 14:29:34;;;;;;;40.22;9.57;;;;;;;;;;4941464;28;20035;-72
2022/04/12 14:32:00;;;;;;;30.30;8.13;;;;;;;;;;4936966;28;20046;-73
2022/04/12 14:34:27;;;;;;;37.03;10.27;;;;;;;;;;4939393;28;20065;-72
2022/04/12 14:36:53;;;;;;;55.15;11.43;;;;;;;;;;4923589;28;20037;-75
2022/04/12 14:39:19;;;;;;;30.27;8.68;;;;;;;;;;4920262;28;20156;-73
2022/04/12 14:41:46;;;;;;;39.83;15.25;;;;;;;;;;4937453;28;20041;-73
2022/04/12 14:44:12;;;;;;;37.08;9.90;;;;;;;;;;4932150;28;20053;-72